sensor_id;sensor_type;location;lat;lon;timestamp;temperature;humidity
6256;DHT22;3161;48.794;9.784;2023-04-22T00:00:30;11.80;99.90
6256;DHT22;3161;48.794;9.784;2023-04-22T00:02:58;11.80;99.90
6256;DHT22;3161;48.794;9.784;2023-04-22T00:05:27;11.80;99.90
6256;DHT22;3161;48.794;9.784;2023-04-22T00:07:54;11.70;99.90
6256;DHT22;3161;48.794;9.784;2023-04-22T00:10:22;11.80;99.90
6256;DHT22;3161;48.794;9.784;2023-04-22T00:12:49;11.70;99.90
6256;DHT22;3161;48.794;9.784;2023-04-22T00:15:17;11.70;99.90
6256;DHT22;3161;48.794;9.784;2023-04-22T00:17:50;11.60;99.90
6256;DHT22;3161;48.794;9.784;2023-04-22T00:20:19;11.60;99.90
6256;DHT22;3161;48.794;9.784;2023-04-22T00:22:49;11.60;99.90
6256;DHT22;3161;48.794;9.784;2023-04-22T00:25:17;11.60;99.90
6256;DHT22;3161;48.794;9.784;2023-04-22T00:27:49;11.50;99.90
6256;DHT22;3161;48.794;9.784;2023-04-22T00:30:17;11.50;99.90
6256;DHT22;3161;48.794;9.784;2023-04-22T00:32:44;11.50;99.90
6256;DHT22;3161;48.794;9.784;2023-04-22T00:35:12;11.50;99.90
6256;DHT22;3161;48.794;9.784;2023-04-22T00:37:39;11.50;99.90
6256;DHT22;3161;48.794;9.784;2023-04-22T00:40:08;11.50;99.90
6256;DHT22;3161;48.794;9.784;2023-04-22T00:42:53;11.50;99.90
6256;DHT22;3161;48.794;9.784;2023-04-22T00:45:21;11.50;99.90
6256;DHT22;3161;48.794;9.784;2023-04-22T00:47:49;11.50;99.90
6256;DHT22;3161;48.794;9.784;2023-04-22T00:50:17;11.50;99.90
6256;DHT22;3161;48.794;9.784;2023-04-22T00:52:44;11.50;99.90
6256;DHT22;3161;48.794;9.784;2023-04-22T00:55:12;11.50;99.90
6256;DHT22;3161;48.794;9.784;2023-04-22T00:57:40;11.50;99.90
6256;DHT22;3161;48.794;9.784;2023-04-22T01:00:08;11.50;99.90
6256;DHT22;3161;48.794;9.784;2023-04-22T01:02:36;11.50;99.90
6256;DHT22;3161;48.794;9.784;2023-04-22T01:05:05;11.50;99.90
6256;DHT22;3161;48.794;9.784;2023-04-22T01:07:35;11.40;99.90
6256;DHT22;3161;48.794;9.784;2023-04-22T01:10:03;11.40;99.90
6256;DHT22;3161;48.794;9.784;2023-04-22T01:12:31;11.50;99.90
6256;DHT22;3161;48.794;9.784;2023-04-22T01:14:58;11.40;99.90
6256;DHT22;3161;48.794;9.784;2023-04-22T01:17:27;11.40;99.90
6256;DHT22;3161;48.794;9.784;2023-04-22T01:19:57;11.40;99.90
6256;DHT22;3161;48.794;9.784;2023-04-22T01:22:26;11.30;99.90
6256;DHT22;3161;48.794;9.784;2023-04-22T01:24:55;11.20;99.90
6256;DHT22;3161;48.794;9.784;2023-04-22T01:27:22;11.20;99.90
6256;DHT22;3161;48.794;9.784;2023-04-22T01:29:50;11.10;99.90
6256;DHT22;3161;48.794;9.784;2023-04-22T01:32:18;11.10;99.90
6256;DHT22;3161;48.794;9.784;2023-04-22T01:34:46;11.10;99.90
6256;DHT22;3161;48.794;9.784;2023-04-22T01:37:14;11.10;99.90
6256;DHT22;3161;48.794;9.784;2023-04-22T01:39:41;11.10;99.90
6256;DHT22;3161;48.794;9.784;2023-04-22T01:42:09;11.10;99.90
6256;DHT22;3161;48.794;9.784;2023-04-22T01:44:37;11.10;99.90
6256;DHT22;3161;48.794;9.784;2023-04-22T01:47:04;11.10;99.90
6256;DHT22;3161;48.794;9.784;2023-04-22T01:49:32;11.10;99.90
6256;DHT22;3161;48.794;9.784;2023-04-22T01:52:00;11.00;99.90
6256;DHT22;3161;48.794;9.784;2023-04-22T01:54:27;11.00;99.90
6256;DHT22;3161;48.794;9.784;2023-04-22T01:56:55;11.00;99.90
6256;DHT22;3161;48.794;9.784;2023-04-22T01:59:23;11.00;99.90
6256;DHT22;3161;48.794;9.784;2023-04-22T02:01:51;11.00;99.90
6256;DHT22;3161;48.794;9.784;2023-04-22T02:04:19;11.00;99.90
6256;DHT22;3161;48.794;9.784;2023-04-22T02:06:47;11.00;99.90
6256;DHT22;3161;48.794;9.784;2023-04-22T02:09:14;10.90;99.90
6256;DHT22;3161;48.794;9.784;2023-04-22T02:11:42;10.90;99.90
6256;DHT22;3161;48.794;9.784;2023-04-22T02:14:09;10.90;99.90
6256;DHT22;3161;48.794;9.784;2023-04-22T02:16:39;10.90;99.90
6256;DHT22;3161;48.794;9.784;2023-04-22T02:19:06;10.90;99.90
6256;DHT22;3161;48.794;9.784;2023-04-22T02:21:34;10.90;99.90
6256;DHT22;3161;48.794;9.784;2023-04-22T02:24:01;10.90;99.90
6256;DHT22;3161;48.794;9.784;2023-04-22T02:26:29;10.90;99.90
6256;DHT22;3161;48.794;9.784;2023-04-22T02:28:57;10.90;99.90
6256;DHT22;3161;48.794;9.784;2023-04-22T02:31:24;10.90;99.90
6256;DHT22;3161;48.794;9.784;2023-04-22T02:33:52;10.80;99.90
6256;DHT22;3161;48.794;9.784;2023-04-22T02:36:19;10.80;99.90
6256;DHT22;3161;48.794;9.784;2023-04-22T02:38:47;10.80;99.90
6256;DHT22;3161;48.794;9.784;2023-04-22T02:41:15;10.80;99.90
6256;DHT22;3161;48.794;9.784;2023-04-22T02:43:42;10.80;99.90
6256;DHT22;3161;48.794;9.784;2023-04-22T02:46:12;10.80;99.90
6256;DHT22;3161;48.794;9.784;2023-04-22T02:48:42;10.80;99.90
6256;DHT22;3161;48.794;9.784;2023-04-22T02:51:09;10.70;99.90
6256;DHT22;3161;48.794;9.784;2023-04-22T02:53:37;10.70;99.90
6256;DHT22;3161;48.794;9.784;2023-04-22T02:56:07;10.70;99.90
6256;DHT22;3161;48.794;9.784;2023-04-22T02:58:53;10.80;99.90
6256;DHT22;3161;48.794;9.784;2023-04-22T03:01:21;10.70;99.90
6256;DHT22;3161;48.794;9.784;2023-04-22T03:03:48;10.70;99.90
6256;DHT22;3161;48.794;9.784;2023-04-22T03:06:16;10.70;99.90
6256;DHT22;3161;48.794;9.784;2023-04-22T03:08:43;10.70;99.90
6256;DHT22;3161;48.794;9.784;2023-04-22T03:11:11;10.70;99.90
6256;DHT22;3161;48.794;9.784;2023-04-22T03:13:39;10.70;99.90
6256;DHT22;3161;48.794;9.784;2023-04-22T03:16:06;10.70;99.90
6256;DHT22;3161;48.794;9.784;2023-04-22T03:18:34;10.70;99.90
6256;DHT22;3161;48.794;9.784;2023-04-22T03:21:02;10.60;99.90
6256;DHT22;3161;48.794;9.784;2023-04-22T03:23:30;10.60;99.90
6256;DHT22;3161;48.794;9.784;2023-04-22T03:25:58;10.60;99.90
6256;DHT22;3161;48.794;9.784;2023-04-22T03:28:25;10.60;99.90
6256;DHT22;3161;48.794;9.784;2023-04-22T03:30:53;10.60;99.90
6256;DHT22;3161;48.794;9.784;2023-04-22T03:33:20;10.60;99.90
6256;DHT22;3161;48.794;9.784;2023-04-22T03:35:48;10.60;99.90
6256;DHT22;3161;48.794;9.784;2023-04-22T03:38:16;10.50;99.90
6256;DHT22;3161;48.794;9.784;2023-04-22T03:40:43;10.50;99.90
6256;DHT22;3161;48.794;9.784;2023-04-22T03:43:11;10.50;99.90
6256;DHT22;3161;48.794;9.784;2023-04-22T03:45:38;10.40;99.90
6256;DHT22;3161;48.794;9.784;2023-04-22T03:48:06;10.50;99.90
6256;DHT22;3161;48.794;9.784;2023-04-22T03:50:33;10.40;99.90
6256;DHT22;3161;48.794;9.784;2023-04-22T03:53:01;10.40;99.90
6256;DHT22;3161;48.794;9.784;2023-04-22T03:55:28;10.40;99.90
6256;DHT22;3161;48.794;9.784;2023-04-22T03:57:57;10.40;99.90
6256;DHT22;3161;48.794;9.784;2023-04-22T04:00:24;10.40;99.90
6256;DHT22;3161;48.794;9.784;2023-04-22T04:02:52;10.40;99.90
6256;DHT22;3161;48.794;9.784;2023-04-22T04:05:20;10.40;99.90
6256;DHT22;3161;48.794;9.784;2023-04-22T04:07:47;10.40;99.90
6256;DHT22;3161;48.794;9.784;2023-04-22T04:10:15;10.40;99.90
6256;DHT22;3161;48.794;9.784;2023-04-22T04:12:43;10.40;99.90
6256;DHT22;3161;48.794;9.784;2023-04-22T04:15:10;10.40;99.90
6256;DHT22;3161;48.794;9.784;2023-04-22T04:20:32;10.40;99.90
6256;DHT22;3161;48.794;9.784;2023-04-22T04:22:59;10.40;99.90
6256;DHT22;3161;48.794;9.784;2023-04-22T04:25:27;10.30;99.90
6256;DHT22;3161;48.794;9.784;2023-04-22T04:27:56;10.40;99.90
6256;DHT22;3161;48.794;9.784;2023-04-22T04:30:23;10.40;99.90
6256;DHT22;3161;48.794;9.784;2023-04-22T04:32:51;10.40;99.90
6256;DHT22;3161;48.794;9.784;2023-04-22T04:35:19;10.40;99.90
6256;DHT22;3161;48.794;9.784;2023-04-22T04:37:46;10.40;99.90
6256;DHT22;3161;48.794;9.784;2023-04-22T04:40:14;10.50;99.90
6256;DHT22;3161;48.794;9.784;2023-04-22T04:42:41;10.50;99.90
6256;DHT22;3161;48.794;9.784;2023-04-22T04:45:09;10.50;99.90
6256;DHT22;3161;48.794;9.784;2023-04-22T04:47:37;10.50;99.90
6256;DHT22;3161;48.794;9.784;2023-04-22T04:50:05;10.50;99.90
6256;DHT22;3161;48.794;9.784;2023-04-22T04:52:33;10.50;99.90
6256;DHT22;3161;48.794;9.784;2023-04-22T04:55:01;10.50;99.90
6256;DHT22;3161;48.794;9.784;2023-04-22T04:57:28;10.50;99.90
6256;DHT22;3161;48.794;9.784;2023-04-22T04:59:56;10.60;99.90
6256;DHT22;3161;48.794;9.784;2023-04-22T05:02:24;10.60;99.90
6256;DHT22;3161;48.794;9.784;2023-04-22T05:04:51;10.60;99.90
6256;DHT22;3161;48.794;9.784;2023-04-22T05:07:19;10.50;99.90
6256;DHT22;3161;48.794;9.784;2023-04-22T05:09:46;10.60;99.90
6256;DHT22;3161;48.794;9.784;2023-04-22T05:12:14;10.50;99.90
6256;DHT22;3161;48.794;9.784;2023-04-22T05:14:42;10.50;99.90
6256;DHT22;3161;48.794;9.784;2023-04-22T05:17:10;10.60;99.90
6256;DHT22;3161;48.794;9.784;2023-04-22T05:19:37;10.60;99.90
6256;DHT22;3161;48.794;9.784;2023-04-22T05:22:06;10.60;99.90
6256;DHT22;3161;48.794;9.784;2023-04-22T05:24:33;10.60;99.90
6256;DHT22;3161;48.794;9.784;2023-04-22T05:27:01;10.70;99.90
6256;DHT22;3161;48.794;9.784;2023-04-22T05:29:29;10.70;99.90
6256;DHT22;3161;48.794;9.784;2023-04-22T05:31:57;10.70;99.90
6256;DHT22;3161;48.794;9.784;2023-04-22T05:34:24;10.70;99.90
6256;DHT22;3161;48.794;9.784;2023-04-22T05:36:52;10.70;99.90
6256;DHT22;3161;48.794;9.784;2023-04-22T05:39:19;10.70;99.90
6256;DHT22;3161;48.794;9.784;2023-04-22T05:41:47;10.80;99.90
6256;DHT22;3161;48.794;9.784;2023-04-22T05:44:15;10.90;99.90
6256;DHT22;3161;48.794;9.784;2023-04-22T05:46:43;10.90;99.90
6256;DHT22;3161;48.794;9.784;2023-04-22T05:49:10;11.00;99.90
6256;DHT22;3161;48.794;9.784;2023-04-22T05:51:38;11.00;99.90
6256;DHT22;3161;48.794;9.784;2023-04-22T05:54:05;11.10;99.90
6256;DHT22;3161;48.794;9.784;2023-04-22T05:56:33;11.10;99.90
6256;DHT22;3161;48.794;9.784;2023-04-22T05:59:00;11.20;99.90
6256;DHT22;3161;48.794;9.784;2023-04-22T06:01:28;11.20;99.90
6256;DHT22;3161;48.794;9.784;2023-04-22T06:03:55;11.30;99.90
6256;DHT22;3161;48.794;9.784;2023-04-22T06:06:23;11.30;99.90
6256;DHT22;3161;48.794;9.784;2023-04-22T06:08:51;11.40;99.90
6256;DHT22;3161;48.794;9.784;2023-04-22T06:11:19;11.40;99.90
6256;DHT22;3161;48.794;9.784;2023-04-22T06:13:47;11.40;99.90
6256;DHT22;3161;48.794;9.784;2023-04-22T06:16:15;11.50;99.90
6256;DHT22;3161;48.794;9.784;2023-04-22T06:18:42;11.50;99.90
6256;DHT22;3161;48.794;9.784;2023-04-22T06:21:10;11.60;99.90
6256;DHT22;3161;48.794;9.784;2023-04-22T06:23:37;11.60;99.90
6256;DHT22;3161;48.794;9.784;2023-04-22T06:26:05;11.70;99.90
6256;DHT22;3161;48.794;9.784;2023-04-22T06:28:33;11.70;99.90
6256;DHT22;3161;48.794;9.784;2023-04-22T06:31:01;11.80;99.90
6256;DHT22;3161;48.794;9.784;2023-04-22T06:33:29;11.80;99.90
6256;DHT22;3161;48.794;9.784;2023-04-22T06:35:56;11.90;99.90
6256;DHT22;3161;48.794;9.784;2023-04-22T06:38:24;12.00;99.90
6256;DHT22;3161;48.794;9.784;2023-04-22T06:40:51;12.00;99.90
6256;DHT22;3161;48.794;9.784;2023-04-22T06:43:19;12.10;99.90
6256;DHT22;3161;48.794;9.784;2023-04-22T06:45:47;12.20;99.90
6256;DHT22;3161;48.794;9.784;2023-04-22T06:48:14;12.40;99.90
6256;DHT22;3161;48.794;9.784;2023-04-22T06:50:42;12.50;99.90
6256;DHT22;3161;48.794;9.784;2023-04-22T06:53:09;12.60;99.90
6256;DHT22;3161;48.794;9.784;2023-04-22T06:55:37;12.70;99.90
6256;DHT22;3161;48.794;9.784;2023-04-22T06:58:05;12.80;99.90
6256;DHT22;3161;48.794;9.784;2023-04-22T07:00:33;13.00;99.90
6256;DHT22;3161;48.794;9.784;2023-04-22T07:03:00;13.10;99.90
6256;DHT22;3161;48.794;9.784;2023-04-22T07:05:28;13.30;99.90
6256;DHT22;3161;48.794;9.784;2023-04-22T07:07:55;13.60;99.90
6256;DHT22;3161;48.794;9.784;2023-04-22T07:10:24;13.80;99.90
6256;DHT22;3161;48.794;9.784;2023-04-22T07:12:51;14.20;99.90
6256;DHT22;3161;48.794;9.784;2023-04-22T07:15:19;14.60;99.90
6256;DHT22;3161;48.794;9.784;2023-04-22T07:17:46;15.20;99.90
6256;DHT22;3161;48.794;9.784;2023-04-22T07:20:14;15.80;99.90
6256;DHT22;3161;48.794;9.784;2023-04-22T07:22:42;16.40;99.90
6256;DHT22;3161;48.794;9.784;2023-04-22T07:25:09;17.20;99.90
6256;DHT22;3161;48.794;9.784;2023-04-22T07:27:37;17.70;99.90
6256;DHT22;3161;48.794;9.784;2023-04-22T07:30:13;18.00;99.90
6256;DHT22;3161;48.794;9.784;2023-04-22T07:32:41;18.20;99.90
6256;DHT22;3161;48.794;9.784;2023-04-22T07:35:08;18.20;99.90
6256;DHT22;3161;48.794;9.784;2023-04-22T07:37:36;18.10;99.90
6256;DHT22;3161;48.794;9.784;2023-04-22T07:40:04;18.00;99.90
6256;DHT22;3161;48.794;9.784;2023-04-22T07:42:33;17.80;99.90
6256;DHT22;3161;48.794;9.784;2023-04-22T07:45:03;17.70;99.90
6256;DHT22;3161;48.794;9.784;2023-04-22T07:47:31;17.80;99.90
6256;DHT22;3161;48.794;9.784;2023-04-22T07:49:58;17.90;99.90
6256;DHT22;3161;48.794;9.784;2023-04-22T07:52:26;18.30;99.90
6256;DHT22;3161;48.794;9.784;2023-04-22T07:54:55;18.70;99.90
6256;DHT22;3161;48.794;9.784;2023-04-22T07:57:23;19.10;99.90
6256;DHT22;3161;48.794;9.784;2023-04-22T07:59:51;19.50;99.90
6256;DHT22;3161;48.794;9.784;2023-04-22T08:02:18;20.00;99.90
6256;DHT22;3161;48.794;9.784;2023-04-22T08:04:46;20.60;99.90
6256;DHT22;3161;48.794;9.784;2023-04-22T08:07:14;21.10;99.90
6256;DHT22;3161;48.794;9.784;2023-04-22T08:09:41;21.60;99.90
6256;DHT22;3161;48.794;9.784;2023-04-22T08:12:09;21.90;98.00
6256;DHT22;3161;48.794;9.784;2023-04-22T08:14:36;22.30;96.90
6256;DHT22;3161;48.794;9.784;2023-04-22T08:17:04;22.80;95.30
6256;DHT22;3161;48.794;9.784;2023-04-22T08:19:31;23.20;94.00
6256;DHT22;3161;48.794;9.784;2023-04-22T08:21:59;23.70;91.40
6256;DHT22;3161;48.794;9.784;2023-04-22T08:24:26;24.30;91.50
6256;DHT22;3161;48.794;9.784;2023-04-22T08:26:54;24.90;88.50
6256;DHT22;3161;48.794;9.784;2023-04-22T08:29:22;25.40;84.20
6256;DHT22;3161;48.794;9.784;2023-04-22T08:31:49;25.70;80.50
6256;DHT22;3161;48.794;9.784;2023-04-22T08:34:17;25.90;79.60
6256;DHT22;3161;48.794;9.784;2023-04-22T08:36:45;26.00;77.00
6256;DHT22;3161;48.794;9.784;2023-04-22T08:39:12;26.20;77.50
6256;DHT22;3161;48.794;9.784;2023-04-22T08:41:41;26.20;75.20
6256;DHT22;3161;48.794;9.784;2023-04-22T08:44:10;26.20;73.20
6256;DHT22;3161;48.794;9.784;2023-04-22T08:46:38;26.10;72.70
6256;DHT22;3161;48.794;9.784;2023-04-22T08:49:07;25.90;72.90
6256;DHT22;3161;48.794;9.784;2023-04-22T08:51:35;25.70;72.90
6256;DHT22;3161;48.794;9.784;2023-04-22T08:54:03;25.40;70.80
6256;DHT22;3161;48.794;9.784;2023-04-22T08:56:31;25.20;73.10
6256;DHT22;3161;48.794;9.784;2023-04-22T08:59:00;25.00;72.90
6256;DHT22;3161;48.794;9.784;2023-04-22T09:01:30;24.90;73.40
6256;DHT22;3161;48.794;9.784;2023-04-22T09:03:58;24.80;71.10
6256;DHT22;3161;48.794;9.784;2023-04-22T09:06:27;24.60;71.30
6256;DHT22;3161;48.794;9.784;2023-04-22T09:08:54;24.50;73.80
6256;DHT22;3161;48.794;9.784;2023-04-22T09:11:26;24.40;74.20
6256;DHT22;3161;48.794;9.784;2023-04-22T09:13:54;24.30;73.90
6256;DHT22;3161;48.794;9.784;2023-04-22T09:16:22;24.20;73.90
6256;DHT22;3161;48.794;9.784;2023-04-22T09:18:50;24.00;71.10
6256;DHT22;3161;48.794;9.784;2023-04-22T09:21:17;23.70;72.00
6256;DHT22;3161;48.794;9.784;2023-04-22T09:23:49;23.60;71.90
6256;DHT22;3161;48.794;9.784;2023-04-22T09:26:24;23.40;72.00
6256;DHT22;3161;48.794;9.784;2023-04-22T09:31:20;23.20;65.50
6256;DHT22;3161;48.794;9.784;2023-04-22T09:33:56;23.10;70.20
6256;DHT22;3161;48.794;9.784;2023-04-22T09:36:27;23.00;66.90
6256;DHT22;3161;48.794;9.784;2023-04-22T09:38:58;23.00;67.90
6256;DHT22;3161;48.794;9.784;2023-04-22T09:41:27;22.90;67.80
6256;DHT22;3161;48.794;9.784;2023-04-22T09:43:55;22.90;73.00
6256;DHT22;3161;48.794;9.784;2023-04-22T09:46:24;22.90;68.70
6256;DHT22;3161;48.794;9.784;2023-04-22T09:48:54;22.80;72.10
6256;DHT22;3161;48.794;9.784;2023-04-22T09:51:22;22.70;66.90
6256;DHT22;3161;48.794;9.784;2023-04-22T09:54:00;22.60;68.00
6256;DHT22;3161;48.794;9.784;2023-04-22T09:56:49;22.60;70.70
6256;DHT22;3161;48.794;9.784;2023-04-22T09:59:27;22.70;71.60
6256;DHT22;3161;48.794;9.784;2023-04-22T10:01:57;22.80;71.60
6256;DHT22;3161;48.794;9.784;2023-04-22T10:04:26;22.80;70.00
6256;DHT22;3161;48.794;9.784;2023-04-22T10:06:54;23.00;70.70
6256;DHT22;3161;48.794;9.784;2023-04-22T10:09:23;23.10;72.50
6256;DHT22;3161;48.794;9.784;2023-04-22T10:11:53;23.30;69.20
6256;DHT22;3161;48.794;9.784;2023-04-22T10:14:21;23.20;65.10
6256;DHT22;3161;48.794;9.784;2023-04-22T10:16:57;23.20;67.40
6256;DHT22;3161;48.794;9.784;2023-04-22T10:19:26;23.00;63.30
6256;DHT22;3161;48.794;9.784;2023-04-22T10:21:56;23.00;65.40
6256;DHT22;3161;48.794;9.784;2023-04-22T10:24:29;23.10;65.90
6256;DHT22;3161;48.794;9.784;2023-04-22T10:26:58;23.10;65.20
6256;DHT22;3161;48.794;9.784;2023-04-22T10:29:36;23.20;70.10
6256;DHT22;3161;48.794;9.784;2023-04-22T10:34:48;23.40;66.90
6256;DHT22;3161;48.794;9.784;2023-04-22T10:37:19;23.60;66.20
6256;DHT22;3161;48.794;9.784;2023-04-22T10:40:08;23.70;64.00
6256;DHT22;3161;48.794;9.784;2023-04-22T10:42:38;23.90;62.40
6256;DHT22;3161;48.794;9.784;2023-04-22T10:45:09;24.00;61.50
6256;DHT22;3161;48.794;9.784;2023-04-22T10:47:37;24.10;60.70
6256;DHT22;3161;48.794;9.784;2023-04-22T10:50:22;24.10;61.50
6256;DHT22;3161;48.794;9.784;2023-04-22T10:52:57;24.10;57.70
6256;DHT22;3161;48.794;9.784;2023-04-22T10:55:43;24.10;57.90
6256;DHT22;3161;48.794;9.784;2023-04-22T10:57:58;24.20;59.90
6256;DHT22;3161;48.794;9.784;2023-04-22T11:00:30;24.40;58.80
6256;DHT22;3161;48.794;9.784;2023-04-22T11:03:07;24.50;62.40
6256;DHT22;3161;48.794;9.784;2023-04-22T11:05:36;24.70;58.20
6256;DHT22;3161;48.794;9.784;2023-04-22T11:08:14;24.90;57.80
6256;DHT22;3161;48.794;9.784;2023-04-22T11:10:44;25.10;61.10
6256;DHT22;3161;48.794;9.784;2023-04-22T11:13:14;25.20;57.50
6256;DHT22;3161;48.794;9.784;2023-04-22T11:15:44;25.20;53.00
6256;DHT22;3161;48.794;9.784;2023-04-22T11:18:20;25.30;54.20
6256;DHT22;3161;48.794;9.784;2023-04-22T11:20:49;25.40;54.70
6256;DHT22;3161;48.794;9.784;2023-04-22T11:23:27;25.50;55.20
6256;DHT22;3161;48.794;9.784;2023-04-22T11:25:59;25.50;55.00
6256;DHT22;3161;48.794;9.784;2023-04-22T11:28:27;25.80;55.50
6256;DHT22;3161;48.794;9.784;2023-04-22T11:31:05;26.10;54.80
6256;DHT22;3161;48.794;9.784;2023-04-22T11:33:28;26.40;52.80
6256;DHT22;3161;48.794;9.784;2023-04-22T11:35:58;26.40;49.20
6256;DHT22;3161;48.794;9.784;2023-04-22T11:38:25;26.50;53.70
6256;DHT22;3161;48.794;9.784;2023-04-22T11:40:54;26.60;54.50
6256;DHT22;3161;48.794;9.784;2023-04-22T11:43:24;26.80;54.30
6256;DHT22;3161;48.794;9.784;2023-04-22T11:45:54;27.10;49.70
6256;DHT22;3161;48.794;9.784;2023-04-22T11:48:23;27.20;49.20
6256;DHT22;3161;48.794;9.784;2023-04-22T11:51:05;27.80;51.50
6256;DHT22;3161;48.794;9.784;2023-04-22T11:53:21;27.70;54.90
6256;DHT22;3161;48.794;9.784;2023-04-22T11:55:50;28.10;46.60
6256;DHT22;3161;48.794;9.784;2023-04-22T11:58:23;28.10;44.80
6256;DHT22;3161;48.794;9.784;2023-04-22T12:00:50;28.10;44.90
6256;DHT22;3161;48.794;9.784;2023-04-22T12:03:26;28.40;45.50
6256;DHT22;3161;48.794;9.784;2023-04-22T12:06:03;28.60;48.50
6256;DHT22;3161;48.794;9.784;2023-04-22T12:08:35;29.00;46.50
6256;DHT22;3161;48.794;9.784;2023-04-22T12:11:07;29.60;48.60
6256;DHT22;3161;48.794;9.784;2023-04-22T12:16:15;30.60;38.80
6256;DHT22;3161;48.794;9.784;2023-04-22T12:18:51;30.80;41.30
6256;DHT22;3161;48.794;9.784;2023-04-22T12:21:21;31.20;39.70
6256;DHT22;3161;48.794;9.784;2023-04-22T12:24:09;31.80;39.00
6256;DHT22;3161;48.794;9.784;2023-04-22T12:26:37;32.10;40.20
6256;DHT22;3161;48.794;9.784;2023-04-22T12:29:04;31.80;38.40
6256;DHT22;3161;48.794;9.784;2023-04-22T12:31:32;31.50;37.00
6256;DHT22;3161;48.794;9.784;2023-04-22T12:33:59;31.20;39.60
6256;DHT22;3161;48.794;9.784;2023-04-22T12:36:28;30.90;38.10
6256;DHT22;3161;48.794;9.784;2023-04-22T12:38:55;30.40;38.70
6256;DHT22;3161;48.794;9.784;2023-04-22T12:41:23;29.50;37.40
6256;DHT22;3161;48.794;9.784;2023-04-22T12:43:50;28.80;38.70
6256;DHT22;3161;48.794;9.784;2023-04-22T12:46:18;28.30;41.40
6256;DHT22;3161;48.794;9.784;2023-04-22T12:48:45;27.80;40.60
6256;DHT22;3161;48.794;9.784;2023-04-22T12:51:13;27.10;41.30
6256;DHT22;3161;48.794;9.784;2023-04-22T12:53:40;26.60;43.10
6256;DHT22;3161;48.794;9.784;2023-04-22T12:56:08;26.40;43.90
6256;DHT22;3161;48.794;9.784;2023-04-22T12:58:36;26.10;44.40
6256;DHT22;3161;48.794;9.784;2023-04-22T13:01:03;25.80;44.80
6256;DHT22;3161;48.794;9.784;2023-04-22T13:03:31;25.50;45.80
6256;DHT22;3161;48.794;9.784;2023-04-22T13:05:59;25.50;47.80
6256;DHT22;3161;48.794;9.784;2023-04-22T13:08:26;25.60;47.10
6256;DHT22;3161;48.794;9.784;2023-04-22T13:10:55;25.70;48.70
6256;DHT22;3161;48.794;9.784;2023-04-22T13:13:23;25.90;48.00
6256;DHT22;3161;48.794;9.784;2023-04-22T13:15:50;26.40;48.00
6256;DHT22;3161;48.794;9.784;2023-04-22T13:18:19;26.90;44.70
6256;DHT22;3161;48.794;9.784;2023-04-22T13:20:48;27.20;44.20
6256;DHT22;3161;48.794;9.784;2023-04-22T13:23:15;27.30;46.30
6256;DHT22;3161;48.794;9.784;2023-04-22T13:25:43;27.20;46.20
6256;DHT22;3161;48.794;9.784;2023-04-22T13:28:10;27.30;46.90
6256;DHT22;3161;48.794;9.784;2023-04-22T13:30:38;28.10;44.70
6256;DHT22;3161;48.794;9.784;2023-04-22T13:33:06;28.60;43.50
6256;DHT22;3161;48.794;9.784;2023-04-22T13:35:34;28.90;43.10
6256;DHT22;3161;48.794;9.784;2023-04-22T13:38:02;28.80;43.00
6256;DHT22;3161;48.794;9.784;2023-04-22T13:40:30;28.80;42.20
6256;DHT22;3161;48.794;9.784;2023-04-22T13:42:58;28.50;43.00
6256;DHT22;3161;48.794;9.784;2023-04-22T13:45:25;27.90;46.90
6256;DHT22;3161;48.794;9.784;2023-04-22T13:47:53;27.30;45.30
6256;DHT22;3161;48.794;9.784;2023-04-22T13:50:22;26.40;45.70
6256;DHT22;3161;48.794;9.784;2023-04-22T13:52:50;25.80;48.20
6256;DHT22;3161;48.794;9.784;2023-04-22T13:55:17;25.30;48.40
6256;DHT22;3161;48.794;9.784;2023-04-22T13:57:45;24.90;49.30
6256;DHT22;3161;48.794;9.784;2023-04-22T14:00:13;24.50;50.20
6256;DHT22;3161;48.794;9.784;2023-04-22T14:02:40;24.20;50.30
6256;DHT22;3161;48.794;9.784;2023-04-22T14:05:08;24.00;52.20
6256;DHT22;3161;48.794;9.784;2023-04-22T14:07:36;23.90;52.90
6256;DHT22;3161;48.794;9.784;2023-04-22T14:10:04;23.80;52.60
6256;DHT22;3161;48.794;9.784;2023-04-22T14:12:34;23.80;52.20
6256;DHT22;3161;48.794;9.784;2023-04-22T14:15:01;23.80;53.90
6256;DHT22;3161;48.794;9.784;2023-04-22T14:17:29;23.60;53.70
6256;DHT22;3161;48.794;9.784;2023-04-22T14:19:56;23.50;53.20
6256;DHT22;3161;48.794;9.784;2023-04-22T14:22:24;23.40;53.60
6256;DHT22;3161;48.794;9.784;2023-04-22T14:24:51;23.40;55.10
6256;DHT22;3161;48.794;9.784;2023-04-22T14:27:19;23.30;56.00
6256;DHT22;3161;48.794;9.784;2023-04-22T14:29:47;23.20;55.30
6256;DHT22;3161;48.794;9.784;2023-04-22T14:32:17;23.20;55.80
6256;DHT22;3161;48.794;9.784;2023-04-22T14:34:44;23.10;55.70
6256;DHT22;3161;48.794;9.784;2023-04-22T14:37:12;23.10;55.50
6256;DHT22;3161;48.794;9.784;2023-04-22T14:39:40;23.00;57.20
6256;DHT22;3161;48.794;9.784;2023-04-22T14:42:08;23.00;56.60
6256;DHT22;3161;48.794;9.784;2023-04-22T14:44:36;22.90;57.30
6256;DHT22;3161;48.794;9.784;2023-04-22T14:47:05;22.90;57.20
6256;DHT22;3161;48.794;9.784;2023-04-22T14:49:32;22.90;58.90
6256;DHT22;3161;48.794;9.784;2023-04-22T14:52:00;22.80;60.00
6256;DHT22;3161;48.794;9.784;2023-04-22T14:54:28;22.80;58.30
6256;DHT22;3161;48.794;9.784;2023-04-22T14:56:55;22.80;59.30
6256;DHT22;3161;48.794;9.784;2023-04-22T14:59:24;22.70;60.10
6256;DHT22;3161;48.794;9.784;2023-04-22T15:01:51;22.70;59.90
6256;DHT22;3161;48.794;9.784;2023-04-22T15:04:19;22.60;60.10
6256;DHT22;3161;48.794;9.784;2023-04-22T15:06:46;22.60;59.40
6256;DHT22;3161;48.794;9.784;2023-04-22T15:09:14;22.60;60.50
6256;DHT22;3161;48.794;9.784;2023-04-22T15:11:41;22.50;60.40
6256;DHT22;3161;48.794;9.784;2023-04-22T15:14:09;22.40;62.40
6256;DHT22;3161;48.794;9.784;2023-04-22T15:16:36;22.30;62.00
6256;DHT22;3161;48.794;9.784;2023-04-22T15:19:04;22.20;61.10
6256;DHT22;3161;48.794;9.784;2023-04-22T15:21:31;22.10;60.10
6256;DHT22;3161;48.794;9.784;2023-04-22T15:23:59;22.10;62.10
6256;DHT22;3161;48.794;9.784;2023-04-22T15:26:26;22.00;61.80
6256;DHT22;3161;48.794;9.784;2023-04-22T15:28:54;22.00;63.10
6256;DHT22;3161;48.794;9.784;2023-04-22T15:31:22;22.00;62.50
6256;DHT22;3161;48.794;9.784;2023-04-22T15:33:49;21.90;64.20
6256;DHT22;3161;48.794;9.784;2023-04-22T15:36:17;21.90;63.40
6256;DHT22;3161;48.794;9.784;2023-04-22T15:38:46;21.80;63.30
6256;DHT22;3161;48.794;9.784;2023-04-22T15:41:14;21.80;64.00
6256;DHT22;3161;48.794;9.784;2023-04-22T15:43:41;21.80;64.80
6256;DHT22;3161;48.794;9.784;2023-04-22T15:46:09;21.80;64.90
6256;DHT22;3161;48.794;9.784;2023-04-22T15:48:36;21.80;63.60
6256;DHT22;3161;48.794;9.784;2023-04-22T15:51:04;21.80;64.80
6256;DHT22;3161;48.794;9.784;2023-04-22T15:53:32;21.80;65.80
6256;DHT22;3161;48.794;9.784;2023-04-22T15:55:59;21.90;66.60
6256;DHT22;3161;48.794;9.784;2023-04-22T15:58:27;21.90;66.90
6256;DHT22;3161;48.794;9.784;2023-04-22T16:00:54;21.90;65.70
6256;DHT22;3161;48.794;9.784;2023-04-22T16:03:22;21.90;65.70
6256;DHT22;3161;48.794;9.784;2023-04-22T16:05:49;21.90;67.70
6256;DHT22;3161;48.794;9.784;2023-04-22T16:08:17;22.00;66.40
6256;DHT22;3161;48.794;9.784;2023-04-22T16:10:44;22.00;66.10
6256;DHT22;3161;48.794;9.784;2023-04-22T16:13:12;22.00;66.40
6256;DHT22;3161;48.794;9.784;2023-04-22T16:15:39;22.10;66.50
6256;DHT22;3161;48.794;9.784;2023-04-22T16:18:07;22.10;65.50
6256;DHT22;3161;48.794;9.784;2023-04-22T16:20:35;22.20;65.50